sensor_id;sensor_type;location;lat;lon;timestamp;pressure;altitude;pressure_sealevel;temperature;humidity
60656;BME280;46477;53.616;10.064;2022-08-23T00:02:09;101382.50;;;22.51;50.19
60656;BME280;46477;53.616;10.064;2022-08-23T00:04:40;101386.28;;;22.50;50.87
60656;BME280;46477;53.616;10.064;2022-08-23T00:07:09;101384.63;;;22.49;50.52
60656;BME280;46477;53.616;10.064;2022-08-23T00:09:35;101383.47;;;22.45;51.59
60656;BME280;46477;53.616;10.064;2022-08-23T00:12:27;101389.25;;;22.49;51.30
60656;BME280;46477;53.616;10.064;2022-08-23T00:14:55;101381.81;;;22.44;51.67
60656;BME280;46477;53.616;10.064;2022-08-23T00:17:27;101382.03;;;22.42;51.25
60656;BME280;46477;53.616;10.064;2022-08-23T00:20:04;101384.97;;;22.41;51.74
60656;BME280;46477;53.616;10.064;2022-08-23T00:25:23;101387.69;;;22.41;51.88
60656;BME280;46477;53.616;10.064;2022-08-23T00:27:48;101383.78;;;22.37;52.13
60656;BME280;46477;53.616;10.064;2022-08-23T00:30:16;101393.59;;;22.38;51.79
60656;BME280;46477;53.616;10.064;2022-08-23T00:32:52;101396.28;;;22.38;52.54
60656;BME280;46477;53.616;10.064;2022-08-23T00:35:26;101383.78;;;22.37;51.72
60656;BME280;46477;53.616;10.064;2022-08-23T00:38:01;101387.81;;;22.34;52.28
60656;BME280;46477;53.616;10.064;2022-08-23T00:40:46;101390.28;;;22.36;52.13
60656;BME280;46477;53.616;10.064;2022-08-23T00:43:17;101399.47;;;22.35;52.45
60656;BME280;46477;53.616;10.064;2022-08-23T00:46:22;101391.34;;;22.35;52.51
60656;BME280;46477;53.616;10.064;2022-08-23T00:49:16;101393.91;;;22.30;52.87
60656;BME280;46477;53.616;10.064;2022-08-23T00:51:55;101388.72;;;22.28;52.39
60656;BME280;46477;53.616;10.064;2022-08-23T00:54:24;101384.59;;;22.25;52.90
60656;BME280;46477;53.616;10.064;2022-08-23T00:56:55;101392.28;;;22.29;52.12
60656;BME280;46477;53.616;10.064;2022-08-23T00:59:27;101387.75;;;22.22;52.87
60656;BME280;46477;53.616;10.064;2022-08-23T01:01:53;101395.41;;;22.25;51.43
60656;BME280;46477;53.616;10.064;2022-08-23T01:04:40;101396.84;;;22.28;52.21
60656;BME280;46477;53.616;10.064;2022-08-23T01:09:56;101391.53;;;22.21;53.16
60656;BME280;46477;53.616;10.064;2022-08-23T01:12:40;101388.34;;;22.24;52.52
60656;BME280;46477;53.616;10.064;2022-08-23T01:16:09;101389.66;;;22.22;52.73
60656;BME280;46477;53.616;10.064;2022-08-23T01:19:10;101388.81;;;22.21;52.47
60656;BME280;46477;53.616;10.064;2022-08-23T01:25:31;101388.09;;;22.14;53.36
60656;BME280;46477;53.616;10.064;2022-08-23T01:27:53;101393.53;;;22.14;53.00
60656;BME280;46477;53.616;10.064;2022-08-23T01:33:36;101395.16;;;22.15;53.11
60656;BME280;46477;53.616;10.064;2022-08-23T01:36:03;101391.84;;;22.13;52.21
60656;BME280;46477;53.616;10.064;2022-08-23T01:38:51;101392.44;;;22.15;52.87
60656;BME280;46477;53.616;10.064;2022-08-23T01:41:20;101398.56;;;22.11;52.61
60656;BME280;46477;53.616;10.064;2022-08-23T01:43:51;101395.59;;;22.12;53.50
60656;BME280;46477;53.616;10.064;2022-08-23T01:46:33;101393.97;;;22.11;52.69
60656;BME280;46477;53.616;10.064;2022-08-23T01:49:02;101389.03;;;22.08;53.15
60656;BME280;46477;53.616;10.064;2022-08-23T01:51:31;101388.19;;;22.07;53.01
60656;BME280;46477;53.616;10.064;2022-08-23T01:53:59;101393.25;;;22.04;53.27
60656;BME280;46477;53.616;10.064;2022-08-23T01:56:34;101394.44;;;22.08;52.79
60656;BME280;46477;53.616;10.064;2022-08-23T01:59:24;101391.13;;;22.06;53.38
60656;BME280;46477;53.616;10.064;2022-08-23T02:02:22;101393.84;;;22.06;53.74
60656;BME280;46477;53.616;10.064;2022-08-23T02:05:28;101390.56;;;22.04;53.41
60656;BME280;46477;53.616;10.064;2022-08-23T02:07:59;101395.59;;;22.00;53.64
60656;BME280;46477;53.616;10.064;2022-08-23T02:11:00;101397.00;;;22.03;53.51
60656;BME280;46477;53.616;10.064;2022-08-23T02:13:32;101393.94;;;21.99;53.46
60656;BME280;46477;53.616;10.064;2022-08-23T02:16:07;101392.53;;;21.97;53.48
60656;BME280;46477;53.616;10.064;2022-08-23T02:19:16;101402.66;;;22.01;53.39
60656;BME280;46477;53.616;10.064;2022-08-23T02:21:47;101394.75;;;22.00;52.41
60656;BME280;46477;53.616;10.064;2022-08-23T02:24:16;101391.69;;;21.96;53.96
60656;BME280;46477;53.616;10.064;2022-08-23T02:26:49;101388.75;;;21.98;52.16
